Ford Information

FAA: IMT - ICAO: KIMT

Ford (Airport) Location

State Michigan
County Dickinson
City Iron Mountain Kingsford
Ford (Airport) is 3 miles west of Iron Mountain Kingsford, MI.
Latitude 45-49-06.1000N
Longitude 088-06-52.4000W
Elevation 1,182ft

Ford METARs

METAR KIMT 190039Z AUTO 18005KT 8SM SCT019 OVC031 M02/M05 A2942 RMK AO2 T10171050
Altimeter 29.42"
Temperature -1.7°C (28.9°F)
Wind 180° at 5KT
Clouds scattered at 1,900ft overcast at 3,100ft
Visibility 8.0mi
Time observed: 2022-01-19T00:39:00Z

Ford (Airport) Details

Status Operational
Activation April 1940
Ownership Public
Usage Public
Chart GREEN BAY
ATC on-site No
Beacon schedule N/A
Beacon color clear green

Ford (Airport) Contacts

Owner DICKINSON COUNTY
Owner address COUNTY COURT HOUSE, IRON MOUNTAIN, MI 49802
Owner phone 906-774-2573
Manager HENRY A. HAIGH
Manager address 900 GULLEY RD, HOWELL, MI 48843
Manager phone 517-546-9582

Ford Radio Frequencies

Ford (Airport) Radio Frequencies

UNICOM 122.8
Common traffic advisory frequency (CTAF) 122.8